createdAt,value
2023-03-22T00:00:17.543Z,21.70
2023-03-22T00:02:46.672Z,22.20
2023-03-22T00:08:15.931Z,22.10
2023-03-22T00:10:44.085Z,23.10
2023-03-22T00:13:13.053Z,23.60
2023-03-22T00:15:44.841Z,22.50
2023-03-22T00:18:17.687Z,21.80
2023-03-22T00:20:50.009Z,22.50
2023-03-22T00:23:18.456Z,23.50
2023-03-22T00:25:48.999Z,23.00
2023-03-22T00:28:17.521Z,21.60
2023-03-22T00:30:56.795Z,22.10
2023-03-22T00:33:29.249Z,21.90
2023-03-22T00:35:59.146Z,23.50
2023-03-22T00:38:41.977Z,22.70
2023-03-22T00:41:11.234Z,22.20
2023-03-22T00:43:41.198Z,23.30
2023-03-22T00:46:10.480Z,21.40
2023-03-22T00:48:39.372Z,23.00
2023-03-22T00:51:08.325Z,20.80
2023-03-22T00:53:41.217Z,22.90
2023-03-22T00:56:14.410Z,20.80
2023-03-22T00:58:58.832Z,22.20
2023-03-22T01:01:32.479Z,23.70
2023-03-22T01:04:03.225Z,21.40
2023-03-22T01:06:33.461Z,21.80
2023-03-22T01:09:01.847Z,21.80
2023-03-22T01:11:33.874Z,21.80
2023-03-22T01:14:02.033Z,22.80
2023-03-22T01:16:30.406Z,20.40
2023-03-22T01:18:58.707Z,21.50
2023-03-22T01:21:26.981Z,20.70
2023-03-22T01:23:55.130Z,19.90
2023-03-22T01:26:23.292Z,20.50
2023-03-22T01:28:51.479Z,22.70
2023-03-22T01:31:19.995Z,22.60
2023-03-22T01:33:48.792Z,21.80
2023-03-22T01:36:16.992Z,20.60
2023-03-22T01:38:45.588Z,20.40
2023-03-22T01:41:14.403Z,22.60
2023-03-22T01:43:43.758Z,22.30
2023-03-22T01:46:12.876Z,22.90
2023-03-22T01:48:46.150Z,20.90
2023-03-22T01:51:25.424Z,21.40
2023-03-22T01:54:34.600Z,22.70
2023-03-22T01:57:03.960Z,22.70
2023-03-22T01:59:38.437Z,20.10
2023-03-22T02:02:19.286Z,22.90
2023-03-22T02:04:58.245Z,21.20
2023-03-22T02:07:31.869Z,23.30
2023-03-22T02:16:36.383Z,20.80
2023-03-22T02:19:10.521Z,22.80
2023-03-22T02:22:03.791Z,22.70
2023-03-22T02:24:56.343Z,22.70
2023-03-22T02:27:33.423Z,21.80
2023-03-22T02:30:50.142Z,22.70
2023-03-22T02:33:25.157Z,21.10
2023-03-22T02:36:33.272Z,22.00
2023-03-22T02:39:28.781Z,20.50
2023-03-22T02:42:15.317Z,21.60
2023-03-22T02:45:09.068Z,20.80
2023-03-22T02:48:00.772Z,21.40
2023-03-22T02:50:40.543Z,22.40
2023-03-22T02:53:21.230Z,20.70
2023-03-22T02:55:53.474Z,21.00
2023-03-22T02:58:25.262Z,20.20
2023-03-22T03:00:56.272Z,21.60
2023-03-22T03:03:29.388Z,22.00
2023-03-22T03:06:00.503Z,22.20
2023-03-22T03:08:28.738Z,23.00
2023-03-22T03:11:00.307Z,22.00
2023-03-22T03:13:29.941Z,21.60
2023-03-22T03:15:59.593Z,21.60
2023-03-22T03:18:52.890Z,22.10
2023-03-22T03:21:24.564Z,21.20
2023-03-22T03:23:58.960Z,22.60
2023-03-22T03:26:39.499Z,21.80
2023-03-22T03:29:28.442Z,23.00
2023-03-22T03:32:28.939Z,21.50
2023-03-22T03:34:59.949Z,20.50
2023-03-22T03:37:37.292Z,19.90
2023-03-22T03:40:27.619Z,19.50
2023-03-22T03:42:56.500Z,20.10
2023-03-22T03:45:25.559Z,20.50
2023-03-22T03:47:57.450Z,23.20
2023-03-22T03:50:26.008Z,23.20
2023-03-22T03:52:55.399Z,22.30
2023-03-22T03:55:23.964Z,21.00
2023-03-22T03:57:53.392Z,20.40
2023-03-22T04:00:21.623Z,21.40
2023-03-22T04:03:11.550Z,21.40
2023-03-22T04:06:00.237Z,20.60
2023-03-22T04:08:28.958Z,21.80
2023-03-22T04:11:00.890Z,19.70
2023-03-22T04:13:32.176Z,18.80
2023-03-22T04:16:02.448Z,20.50
2023-03-22T04:18:35.995Z,18.90
2023-03-22T04:21:06.931Z,18.20
2023-03-22T04:23:42.641Z,19.80
2023-03-22T04:26:11.625Z,17.50
2023-03-22T04:28:47.373Z,18.60
2023-03-22T04:31:15.886Z,19.50
2023-03-22T04:33:56.466Z,19.80
2023-03-22T04:36:49.908Z,16.50
2023-03-22T04:39:35.472Z,18.50
2023-03-22T04:42:22.185Z,18.90
2023-03-22T04:44:54.620Z,17.80
2023-03-22T04:47:22.944Z,18.70
2023-03-22T04:49:51.413Z,18.50
2023-03-22T04:52:19.840Z,17.50
2023-03-22T04:54:52.846Z,18.80
2023-03-22T04:57:21.366Z,18.00
2023-03-22T04:59:49.699Z,18.60
2023-03-22T05:02:19.143Z,19.10
2023-03-22T05:04:49.168Z,18.40
2023-03-22T05:07:39.366Z,17.00
2023-03-22T05:10:11.480Z,17.40
2023-03-22T05:12:40.552Z,18.10
2023-03-22T05:15:25.056Z,17.10
2023-03-22T05:17:56.398Z,16.60
2023-03-22T05:20:25.280Z,17.40
2023-03-22T05:23:31.073Z,17.80
2023-03-22T05:26:01.786Z,16.50
2023-03-22T05:28:32.051Z,16.50
2023-03-22T05:31:21.820Z,18.00
2023-03-22T05:34:04.243Z,16.90
2023-03-22T05:36:36.621Z,17.30
2023-03-22T05:39:34.122Z,18.30
2023-03-22T05:42:02.583Z,16.80
2023-03-22T05:44:32.046Z,16.10
2023-03-22T05:47:08.386Z,17.40
2023-03-22T05:50:07.680Z,15.90
2023-03-22T05:52:36.156Z,16.20
2023-03-22T05:55:25.637Z,16.00
2023-03-22T05:57:57.400Z,15.40
2023-03-22T06:00:32.222Z,16.70
2023-03-22T06:03:24.592Z,15.80
2023-03-22T06:06:15.992Z,15.70
2023-03-22T06:09:17.551Z,14.10
2023-03-22T06:11:51.391Z,15.80
2023-03-22T06:14:19.942Z,15.90
2023-03-22T06:17:09.200Z,15.80
2023-03-22T06:19:41.068Z,15.50
2023-03-22T06:22:10.035Z,15.30
2023-03-22T06:24:40.683Z,15.70
2023-03-22T06:27:09.722Z,15.30
2023-03-22T06:29:41.803Z,15.30
2023-03-22T06:32:10.251Z,14.80
2023-03-22T06:34:38.784Z,15.60
2023-03-22T06:37:07.075Z,14.20
2023-03-22T06:39:38.294Z,15.30
2023-03-22T06:42:06.701Z,15.20
2023-03-22T06:44:35.068Z,14.70
2023-03-22T06:47:16.249Z,15.90
2023-03-22T06:49:50.601Z,15.40
2023-03-22T06:52:25.306Z,15.90
2023-03-22T06:54:54.078Z,14.40
2023-03-22T06:57:33.021Z,16.10
2023-03-22T07:00:01.297Z,15.60
2023-03-22T07:02:29.837Z,16.00
2023-03-22T07:05:20.045Z,15.00
2023-03-22T07:07:48.273Z,16.50
2023-03-22T07:10:18.361Z,15.00
2023-03-22T07:12:48.376Z,15.00
2023-03-22T07:15:17.855Z,15.20
2023-03-22T07:17:57.626Z,15.60
2023-03-22T07:20:26.241Z,17.10
2023-03-22T07:22:54.694Z,15.30
2023-03-22T07:25:25.432Z,14.40
2023-03-22T07:28:03.534Z,15.20
2023-03-22T07:30:37.896Z,13.80
2023-03-22T07:33:06.955Z,12.90
2023-03-22T07:35:36.995Z,15.00
2023-03-22T07:38:06.711Z,14.20
2023-03-22T07:40:35.219Z,12.80
2023-03-22T07:43:04.066Z,13.00
2023-03-22T07:45:49.394Z,12.50
2023-03-22T07:48:54.038Z,13.80
2023-03-22T07:51:42.361Z,12.50
2023-03-22T07:54:14.020Z,12.60
2023-03-22T07:56:48.207Z,12.60
2023-03-22T07:59:17.659Z,12.80
2023-03-22T08:01:46.495Z,12.40
2023-03-22T08:04:42.210Z,13.00
2023-03-22T08:07:33.556Z,12.70
2023-03-22T08:10:06.271Z,13.80
2023-03-22T08:12:35.731Z,12.40
2023-03-22T08:15:34.348Z,13.60
2023-03-22T08:18:03.028Z,12.70
2023-03-22T08:20:35.351Z,12.80
2023-03-22T08:25:54.974Z,12.20
2023-03-22T08:28:23.349Z,14.10
2023-03-22T08:30:51.692Z,13.90
2023-03-22T08:33:23.421Z,13.90
2023-03-22T08:36:08.170Z,13.30
2023-03-22T08:38:39.530Z,13.10
2023-03-22T08:41:09.268Z,13.70
2023-03-22T08:43:38.612Z,13.10
2023-03-22T08:46:08.013Z,13.00
2023-03-22T08:48:38.105Z,12.90
2023-03-22T08:51:20.736Z,13.70
2023-03-22T08:54:04.705Z,14.50
2023-03-22T08:56:59.414Z,13.90
2023-03-22T08:59:52.469Z,12.40
2023-03-22T09:02:24.822Z,11.70
2023-03-22T09:04:54.210Z,12.30
2023-03-22T09:07:27.493Z,12.90
2023-03-22T09:10:09.752Z,12.50
2023-03-22T09:12:39.950Z,13.40
2023-03-22T09:15:08.984Z,13.10
2023-03-22T09:17:38.239Z,11.90
2023-03-22T09:20:12.783Z,11.10
2023-03-22T09:22:43.092Z,11.70
2023-03-22T09:25:13.022Z,11.50
2023-03-22T09:30:14.520Z,10.40
2023-03-22T09:32:43.509Z,9.60
2023-03-22T09:35:13.433Z,10.20
2023-03-22T09:37:54.771Z,9.00
2023-03-22T09:40:29.404Z,9.40
2023-03-22T09:42:59.343Z,9.80
2023-03-22T09:45:38.416Z,9.20
2023-03-22T09:48:15.769Z,7.60
2023-03-22T09:50:47.439Z,7.80
2023-03-22T09:53:16.691Z,6.60
2023-03-22T09:56:00.952Z,8.40
2023-03-22T09:58:40.699Z,8.80
2023-03-22T10:01:21.155Z,8.60
2023-03-22T10:04:26.680Z,8.30
2023-03-22T10:07:11.030Z,7.40
2023-03-22T10:10:06.719Z,6.80
2023-03-22T10:12:47.598Z,5.20
2023-03-22T10:15:19.850Z,4.80
2023-03-22T10:17:54.233Z,4.30
2023-03-22T10:20:37.648Z,4.00
2023-03-22T10:23:09.291Z,3.40
2023-03-22T10:25:40.017Z,3.20
2023-03-22T10:28:34.986Z,3.40
2023-03-22T10:31:05.667Z,3.00
2023-03-22T10:33:38.069Z,2.90
2023-03-22T10:36:11.270Z,2.90
2023-03-22T10:38:46.516Z,2.70
2023-03-22T10:41:16.813Z,2.70
2023-03-22T10:43:45.784Z,2.40
2023-03-22T10:46:19.138Z,2.40
2023-03-22T10:48:49.728Z,2.40
2023-03-22T10:51:25.740Z,2.70
2023-03-22T10:53:58.248Z,2.90
2023-03-22T10:56:26.843Z,2.70
2023-03-22T10:58:57.402Z,2.40
2023-03-22T11:01:26.978Z,2.60
2023-03-22T11:04:22.051Z,2.20
2023-03-22T11:06:56.080Z,2.40
2023-03-22T11:09:24.874Z,2.90
2023-03-22T11:11:54.526Z,2.80
2023-03-22T11:14:43.355Z,3.00
2023-03-22T11:17:14.277Z,2.70
2023-03-22T11:19:55.442Z,2.30
2023-03-22T11:22:28.827Z,2.80
2023-03-22T11:24:57.139Z,2.50
2023-03-22T11:27:30.042Z,2.70
2023-03-22T11:29:59.820Z,2.70
2023-03-22T11:32:41.015Z,2.60
2023-03-22T11:35:23.468Z,2.90
2023-03-22T11:37:52.820Z,3.50
2023-03-22T11:40:28.239Z,3.50
2023-03-22T11:43:15.866Z,3.70
2023-03-22T11:45:44.433Z,3.20
2023-03-22T11:48:18.188Z,3.40
2023-03-22T11:50:46.574Z,3.50
2023-03-22T11:53:19.652Z,3.40
2023-03-22T11:55:48.875Z,3.50
2023-03-22T11:58:39.845Z,3.30
2023-03-22T12:01:11.205Z,4.00
2023-03-22T12:03:40.677Z,3.10
2023-03-22T12:06:28.533Z,3.70
2023-03-22T12:09:04.332Z,3.60
2023-03-22T12:11:43.927Z,3.20
2023-03-22T13:55:48.331Z,3.30
2023-03-22T13:58:36.439Z,3.90
2023-03-22T14:01:36.466Z,4.10
2023-03-22T14:04:10.860Z,3.20
2023-03-22T14:06:47.586Z,4.00
2023-03-22T14:09:36.483Z,3.40
2023-03-22T14:12:06.343Z,4.20
2023-03-22T14:14:36.984Z,3.90
2023-03-22T14:17:12.183Z,3.60
2023-03-22T14:19:40.681Z,3.30
